Preveza, Greece
Current Conditions -  °F | °C
As of 2:50 AM on Sunday 23 Nov 2014 (Local Time) from LGPZ Reporting Station
Few Clouds Few Clouds  
Wind Chill: 11°   Ceiling: Unl
Heat Index: 11°   Visibility: 6mi
Dew Point:   Wind: 6mph
Humidity: 76%   Direction: 70°ENE
Pressure: 30.27"   Gusts: NA
Location:  38.95°N, 20.75°E
Report Text: LGPZ 222350Z 07005KT 9999 FEW025 11/07 Q1025
Loading
Personal Weather Stations






























Interactive Weather Map New forecast layout! Learn more

10-Day Weather Forecast

Advertisements
Track Severe Weather on mobile